Time;durP1;ratioP1;P1;durP2;ratioP2;P2;SDS_P1;SDS_P2;PMS_P1;PMS_P2;Temp;Humidity;BMP_temperature;BMP_pressure;BME280_temperature;BME280_humidity;BME280_pressure;Samples;Min_cycle;Max_cycle;Signal;HPM_P1;HPM_P2
2022/06/15 00:00:03;;;;;;;6.72;2.78;;;13.80;99.90;;;;;;5054520;28;20650;-83
2022/06/15 00:02:28;;;;;;;8.48;3.40;;;13.70;99.90;;;;;;5054751;28;20117;-82
2022/06/15 00:04:54;;;;;;;7.85;3.58;;;13.70;99.90;;;;;;5055377;28;20466;-83
2022/06/15 00:07:19;;;;;;;7.20;2.97;;;13.70;99.90;;;;;;5054491;28;20583;-83
2022/06/15 00:09:45;;;;;;;8.70;3.88;;;13.70;99.90;;;;;;5053969;28;20486;-83
2022/06/15 00:12:10;;;;;;;10.23;3.42;;;13.60;99.90;;;;;;5054217;28;20040;-83
2022/06/15 00:14:36;;;;;;;7.28;2.70;;;13.60;99.90;;;;;;5038699;28;20043;-84
2022/06/15 00:17:02;;;;;;;9.85;4.60;;;13.60;99.90;;;;;;5053931;28;20402;-83
2022/06/15 00:19:28;;;;;;;7.55;3.10;;;13.60;99.90;;;;;;5054000;28;20090;-83
2022/06/15 00:21:53;;;;;;;9.95;3.80;;;13.60;99.90;;;;;;5054992;28;20048;-83
2022/06/15 00:24:19;;;;;;;8.63;4.10;;;13.50;99.90;;;;;;5053684;28;20553;-83
2022/06/15 00:26:45;;;;;;;7.90;4.30;;;13.50;99.90;;;;;;5038051;28;20524;-83
2022/06/15 00:29:11;;;;;;;7.68;3.30;;;13.50;99.90;;;;;;5053657;28;20068;-83
2022/06/15 00:31:36;;;;;;;14.07;3.70;;;13.50;99.90;;;;;;5054164;28;20050;-83
2022/06/15 00:34:02;;;;;;;9.32;4.20;;;13.40;99.90;;;;;;5054846;28;20127;-83
2022/06/15 00:36:29;;;;;;;10.48;3.30;;;13.40;99.90;;;;;;5053815;28;20033;-82
2022/06/15 00:38:58;;;;;;;7.78;3.67;;;13.30;99.90;;;;;;5037555;28;20044;-83
2022/06/15 00:41:30;;;;;;;8.77;2.90;;;13.30;99.90;;;;;;5053585;28;20040;-83
2022/06/15 00:44:19;;;;;;;10.80;2.97;;;13.30;99.90;;;;;;5054703;28;20409;-83
2022/06/15 00:47:01;;;;;;;9.73;3.30;;;13.20;99.90;;;;;;5052978;28;20043;-83
2022/06/15 00:49:41;;;;;;;9.30;3.22;;;13.10;99.90;;;;;;5053735;28;20498;-83
2022/06/15 00:52:20;;;;;;;8.80;3.70;;;13.10;99.90;;;;;;5037214;28;20036;-83
2022/06/15 00:54:49;;;;;;;9.80;4.10;;;13.00;99.90;;;;;;5037734;28;20063;-83
2022/06/15 00:57:15;;;;;;;9.30;3.67;;;13.10;99.90;;;;;;5037672;28;20095;-82
2022/06/15 00:59:59;;;;;;;8.13;4.50;;;13.10;99.90;;;;;;5052920;28;20042;-83
2022/06/15 01:02:26;;;;;;;7.40;3.55;;;13.10;99.90;;;;;;5037457;28;20048;-83
2022/06/15 01:04:58;;;;;;;8.25;3.00;;;13.00;99.90;;;;;;5036436;28;20032;-83
2022/06/15 01:07:54;;;;;;;7.45;3.30;;;12.90;99.90;;;;;;5037280;28;20105;-83
2022/06/15 01:10:56;;;;;;;6.97;3.00;;;12.90;99.90;;;;;;5051571;28;20041;-83
2022/06/15 01:13:47;;;;;;;7.43;3.08;;;12.90;99.90;;;;;;5037093;28;20048;-83
2022/06/15 01:16:39;;;;;;;7.95;3.10;;;12.80;99.90;;;;;;5052221;28;20127;-83
2022/06/15 01:19:23;;;;;;;7.35;3.45;;;12.70;99.90;;;;;;5053401;28;20052;-83
2022/06/15 01:21:49;;;;;;;9.85;4.00;;;12.70;99.90;;;;;;5053338;28;20041;-83
2022/06/15 01:24:51;;;;;;;7.07;2.97;;;12.70;99.90;;;;;;5036268;28;20098;-83
2022/06/15 01:27:22;;;;;;;6.18;2.22;;;12.70;99.90;;;;;;5053221;28;20044;-82
2022/06/15 01:30:14;;;;;;;7.47;3.03;;;12.60;99.90;;;;;;5052575;28;20041;-82
2022/06/15 01:32:45;;;;;;;7.18;2.85;;;12.50;99.90;;;;;;5036431;28;20042;-83
2022/06/15 01:35:34;;;;;;;7.60;3.72;;;12.50;99.90;;;;;;5036322;28;20066;-83
2022/06/15 01:38:19;;;;;;;8.18;3.20;;;12.50;99.90;;;;;;5053643;28;20110;-82
2022/06/15 01:40:51;;;;;;;10.25;4.10;;;12.40;99.90;;;;;;5052750;28;20416;-83
2022/06/15 01:43:21;;;;;;;7.50;2.88;;;12.40;99.90;;;;;;5053513;28;20048;-83
2022/06/15 01:45:48;;;;;;;9.10;3.53;;;12.30;99.90;;;;;;5035652;28;20124;-83
2022/06/15 01:48:14;;;;;;;7.55;2.80;;;12.30;99.90;;;;;;5036656;28;20094;-83
2022/06/15 01:50:54;;;;;;;8.27;2.53;;;12.30;99.90;;;;;;5036420;28;20432;-83
2022/06/15 01:53:22;;;;;;;6.40;2.28;;;12.20;99.90;;;;;;5052584;28;20501;-83
2022/06/15 01:55:53;;;;;;;7.32;3.30;;;12.10;99.90;;;;;;5053077;28;20566;-82
2022/06/15 01:58:22;;;;;;;7.50;2.78;;;12.10;99.90;;;;;;5052363;28;20036;-83
2022/06/15 02:00:58;;;;;;;7.22;2.83;;;12.10;99.90;;;;;;5036080;28;20047;-82
2022/06/15 02:03:40;;;;;;;7.55;3.00;;;12.00;99.90;;;;;;5035755;28;20124;-83
2022/06/15 02:06:10;;;;;;;14.73;3.30;;;12.00;99.90;;;;;;5053036;28;20041;-82
2022/06/15 02:08:52;;;;;;;9.98;3.10;;;11.90;99.90;;;;;;5035098;28;20490;-82
2022/06/15 02:11:23;;;;;;;12.70;3.35;;;11.90;99.90;;;;;;5052605;28;20036;-82
2022/06/15 02:14:07;;;;;;;9.40;3.50;;;11.90;99.90;;;;;;5052020;28;20025;-83
2022/06/15 02:16:37;;;;;;;9.50;3.58;;;11.90;99.90;;;;;;5053194;28;20036;-82
2022/06/15 02:19:06;;;;;;;10.85;3.55;;;11.90;99.90;;;;;;5052081;28;20044;-82
2022/06/15 02:21:35;;;;;;;9.50;5.00;;;11.90;99.90;;;;;;5035662;28;20044;-82
2022/06/15 02:24:02;;;;;;;12.30;4.45;;;11.90;99.90;;;;;;5052990;28;20036;-82
2022/06/15 02:26:31;;;;;;;10.27;3.67;;;11.90;99.90;;;;;;5052099;28;20102;-82
2022/06/15 02:29:04;;;;;;;9.05;3.83;;;11.80;99.90;;;;;;5035438;28;20083;-82
2022/06/15 02:31:30;;;;;;;11.45;4.22;;;11.80;99.90;;;;;;5035555;28;20041;-83
2022/06/15 02:33:57;;;;;;;10.52;5.75;;;11.80;99.90;;;;;;5052724;28;20126;-83
2022/06/15 02:36:23;;;;;;;8.07;3.50;;;11.90;99.90;;;;;;5051765;28;20040;-82
2022/06/15 02:38:51;;;;;;;8.10;3.30;;;11.80;99.90;;;;;;5052851;28;20528;-82
2022/06/15 02:41:19;;;;;;;8.95;3.92;;;11.80;99.90;;;;;;5056474;28;20052;-83
2022/06/15 02:43:48;;;;;;;9.05;3.75;;;11.80;99.90;;;;;;5055309;28;20048;-82
2022/06/15 02:46:16;;;;;;;8.68;4.20;;;11.70;99.90;;;;;;5056617;28;20058;-83
2022/06/15 02:48:42;;;;;;;9.23;4.43;;;11.70;99.90;;;;;;5055871;28;20040;-83
2022/06/15 02:51:17;;;;;;;9.73;4.28;;;11.70;99.90;;;;;;5055951;28;20378;-82
2022/06/15 02:53:43;;;;;;;9.82;4.43;;;11.70;99.90;;;;;;5039387;28;20043;-82
2022/06/15 02:56:12;;;;;;;8.70;3.85;;;11.60;99.90;;;;;;5039627;28;20089;-82
2022/06/15 02:58:45;;;;;;;9.55;3.70;;;11.60;99.90;;;;;;5067884;28;20048;-82
2022/06/15 03:01:11;;;;;;;9.02;3.60;;;11.60;99.90;;;;;;5062392;28;20417;-82
2022/06/15 03:03:38;;;;;;;9.05;3.75;;;11.50;99.90;;;;;;5064095;28;20048;-82
2022/06/15 03:06:11;;;;;;;10.23;4.70;;;11.50;99.90;;;;;;5066002;28;20505;-83
2022/06/15 03:08:37;;;;;;;10.55;4.75;;;11.50;99.90;;;;;;5051644;28;20040;-83
2022/06/15 03:11:03;;;;;;;11.50;4.72;;;11.50;99.90;;;;;;5058996;28;20504;-82
2022/06/15 03:13:29;;;;;;;11.00;6.85;;;11.50;99.90;;;;;;5063552;28;20028;-82
2022/06/15 03:15:59;;;;;;;10.68;4.82;;;11.60;99.90;;;;;;5039696;28;20454;-83
2022/06/15 03:18:26;;;;;;;8.77;4.28;;;11.60;99.90;;;;;;5055980;28;20111;-83
2022/06/15 03:20:56;;;;;;;12.45;5.03;;;11.50;99.90;;;;;;5036299;28;20033;-82
2022/06/15 03:23:21;;;;;;;9.82;4.78;;;11.60;99.90;;;;;;5054968;28;20037;-82
2022/06/15 03:25:52;;;;;;;14.70;5.53;;;11.60;99.90;;;;;;5055398;28;20045;-82
2022/06/15 03:28:18;;;;;;;11.10;7.70;;;11.60;99.90;;;;;;5055003;28;20040;-82
2022/06/15 03:30:43;;;;;;;13.30;5.70;;;11.70;99.90;;;;;;5037368;28;20041;-83
2022/06/15 03:33:09;;;;;;;13.18;6.10;;;11.70;99.90;;;;;;5053810;28;20036;-83
2022/06/15 03:35:35;;;;;;;11.20;5.88;;;11.60;99.90;;;;;;5054808;28;20043;-83
2022/06/15 03:38:02;;;;;;;11.15;5.68;;;11.60;99.90;;;;;;5054476;28;20032;-82
2022/06/15 03:40:28;;;;;;;13.48;6.15;;;11.60;99.90;;;;;;5038238;28;20555;-83
2022/06/15 03:42:54;;;;;;;11.18;6.07;;;11.60;99.90;;;;;;5053751;28;20068;-82
2022/06/15 03:45:20;;;;;;;13.15;6.35;;;11.70;99.90;;;;;;5054879;28;20086;-82
2022/06/15 03:47:45;;;;;;;9.73;5.78;;;11.70;99.90;;;;;;5054461;28;20089;-82
2022/06/15 03:50:11;;;;;;;10.30;5.22;;;11.70;99.90;;;;;;5036890;28;20043;-82
2022/06/15 03:52:37;;;;;;;12.23;6.47;;;11.70;99.90;;;;;;5053543;28;20040;-82
2022/06/15 03:55:03;;;;;;;11.65;8.43;;;11.70;99.90;;;;;;5054408;28;20054;-82
2022/06/15 03:57:29;;;;;;;10.82;5.88;;;11.80;99.90;;;;;;5055405;28;20123;-82
2022/06/15 03:59:54;;;;;;;12.48;6.30;;;11.80;99.90;;;;;;5053582;28;20040;-82
2022/06/15 04:02:20;;;;;;;11.80;6.43;;;11.70;99.90;;;;;;5038552;28;20040;-82
2022/06/15 04:04:45;;;;;;;11.48;6.22;;;11.80;99.90;;;;;;5037833;28;20497;-82
2022/06/15 04:09:55;;;;;;;12.02;9.07;;;11.80;99.90;;;;;;5054196;28;20048;-82
2022/06/15 04:12:21;;;;;;;11.98;6.03;;;11.90;99.90;;;;;;5037327;28;20409;-82
2022/06/15 04:14:47;;;;;;;13.05;7.03;;;11.90;99.90;;;;;;5054365;28;20094;-83
2022/06/15 04:17:13;;;;;;;9.98;5.35;;;11.90;99.90;;;;;;5054674;28;20090;-83
2022/06/15 04:19:39;;;;;;;11.00;5.88;;;12.00;99.90;;;;;;5053021;28;20036;-81
2022/06/15 04:22:05;;;;;;;12.75;6.55;;;12.00;99.90;;;;;;5054458;28;20047;-82
2022/06/15 04:24:31;;;;;;;11.85;6.32;;;12.10;99.90;;;;;;5037534;28;20509;-82
2022/06/15 04:26:58;;;;;;;12.68;6.53;;;12.10;99.90;;;;;;5053919;28;20051;-82
2022/06/15 04:29:24;;;;;;;14.95;6.97;;;12.20;99.90;;;;;;5036589;28;20124;-82
2022/06/15 04:31:51;;;;;;;14.20;6.85;;;12.20;99.90;;;;;;5053876;28;20047;-82
2022/06/15 04:34:17;;;;;;;12.40;7.18;;;12.30;99.90;;;;;;5054013;28;20032;-82
2022/06/15 04:36:44;;;;;;;18.15;7.35;;;12.30;99.90;;;;;;5053515;28;20066;-81
2022/06/15 04:39:12;;;;;;;14.75;9.52;;;12.40;99.90;;;;;;5037031;28;20517;-82
2022/06/15 04:41:39;;;;;;;11.25;6.18;;;12.50;99.90;;;;;;5037470;28;20047;-82
2022/06/15 04:44:07;;;;;;;12.82;7.38;;;12.50;99.90;;;;;;5052967;28;20131;-82
2022/06/15 04:46:33;;;;;;;13.38;9.25;;;12.50;99.90;;;;;;5053977;28;20401;-82
2022/06/15 04:49:00;;;;;;;14.18;7.55;;;12.70;99.90;;;;;;5052871;28;20052;-83
2022/06/15 04:51:29;;;;;;;11.93;6.07;;;12.70;99.90;;;;;;5035953;28;20386;-82
2022/06/15 04:53:56;;;;;;;12.35;7.53;;;12.70;99.90;;;;;;5046481;28;20036;-83
2022/06/15 04:56:22;;;;;;;16.00;6.95;;;12.80;99.90;;;;;;5048563;28;20535;-82
2022/06/15 04:58:48;;;;;;;14.88;10.00;;;12.80;99.90;;;;;;5052754;28;20036;-82
2022/06/15 05:01:15;;;;;;;14.80;7.40;;;12.90;99.90;;;;;;5053252;28;20082;-82
2022/06/15 05:03:40;;;;;;;14.02;7.53;;;13.00;99.90;;;;;;5053185;28;20032;-82
2022/06/15 05:06:09;;;;;;;14.75;6.82;;;13.00;99.90;;;;;;5052972;28;20055;-83
2022/06/15 05:08:35;;;;;;;13.68;6.88;;;13.00;99.90;;;;;;5053344;28;20052;-83
2022/06/15 05:11:01;;;;;;;14.65;9.75;;;13.10;99.90;;;;;;5052623;28;20059;-83
2022/06/15 05:13:27;;;;;;;14.55;6.95;;;13.20;99.90;;;;;;5052650;28;20489;-83
2022/06/15 05:15:53;;;;;;;14.68;7.25;;;13.20;99.90;;;;;;5053461;28;20036;-83
2022/06/15 05:18:18;;;;;;;13.13;7.60;;;13.20;99.90;;;;;;5052706;28;20036;-83
2022/06/15 05:20:44;;;;;;;17.15;10.55;;;13.30;99.90;;;;;;5053146;28;20040;-83
2022/06/15 05:23:15;;;;;;;12.70;7.65;;;13.40;99.90;;;;;;5052595;28;20140;-83
2022/06/15 05:25:41;;;;;;;14.57;10.35;;;13.40;99.90;;;;;;5036472;28;20040;-83
2022/06/15 05:28:08;;;;;;;13.82;8.35;;;13.50;99.90;;;;;;5052946;28;20032;-83
2022/06/15 05:30:35;;;;;;;12.23;7.82;;;13.60;99.90;;;;;;5051547;28;20040;-83
2022/06/15 05:33:01;;;;;;;15.15;10.18;;;13.60;99.90;;;;;;5052825;28;20040;-84
2022/06/15 05:35:27;;;;;;;13.68;8.68;;;13.70;99.90;;;;;;5035889;28;20032;-81
2022/06/15 05:37:52;;;;;;;14.95;8.30;;;13.80;99.90;;;;;;5052806;28;20047;-83
2022/06/15 05:40:18;;;;;;;15.75;9.95;;;13.90;99.90;;;;;;5036297;28;20040;-83
2022/06/15 05:42:44;;;;;;;14.00;8.15;;;13.90;99.90;;;;;;5052256;28;20131;-83
2022/06/15 05:45:10;;;;;;;14.50;7.07;;;14.00;99.90;;;;;;5035966;28;20044;-83
2022/06/15 05:47:36;;;;;;;12.45;7.05;;;14.10;99.90;;;;;;5051462;28;20032;-83
2022/06/15 05:50:01;;;;;;;12.07;8.55;;;14.20;99.90;;;;;;5051475;28;20025;-83
2022/06/15 05:52:27;;;;;;;12.85;7.25;;;14.30;99.90;;;;;;5053013;28;20551;-83
2022/06/15 05:54:53;;;;;;;13.73;8.65;;;14.40;99.90;;;;;;5036791;28;20047;-83
2022/06/15 05:57:22;;;;;;;14.52;8.13;;;14.50;99.90;;;;;;5052015;28;20044;-83
2022/06/15 05:59:49;;;;;;;13.27;7.07;;;14.60;99.90;;;;;;5052913;28;20401;-83
2022/06/15 06:02:17;;;;;;;14.73;6.53;;;14.70;99.90;;;;;;5052267;28;20127;-82
2022/06/15 06:04:43;;;;;;;12.88;7.25;;;14.70;99.90;;;;;;5052815;28;20045;-83
2022/06/15 06:07:10;;;;;;;15.85;6.93;;;14.80;99.90;;;;;;5052899;28;20470;-83
2022/06/15 06:09:36;;;;;;;14.75;7.25;;;14.90;99.90;;;;;;5035525;28;20105;-83
2022/06/15 06:12:02;;;;;;;13.20;6.38;;;15.00;99.90;;;;;;5035661;28;20124;-83
2022/06/15 06:14:28;;;;;;;13.35;7.18;;;15.10;99.90;;;;;;5034768;28;20024;-83
2022/06/15 06:16:53;;;;;;;12.68;7.20;;;15.20;99.90;;;;;;5052585;28;20086;-83
2022/06/15 06:19:19;;;;;;;12.77;7.13;;;15.30;99.90;;;;;;5051976;28;20068;-83
2022/06/15 06:21:44;;;;;;;12.90;6.18;;;15.40;99.90;;;;;;5052557;28;20498;-84
2022/06/15 06:24:11;;;;;;;14.15;6.05;;;15.50;99.90;;;;;;5053030;28;20044;-84
2022/06/15 06:26:37;;;;;;;10.82;5.57;;;15.50;99.90;;;;;;5051911;28;20166;-84
2022/06/15 06:29:04;;;;;;;13.45;6.43;;;15.60;99.90;;;;;;5019883;28;20515;-84
2022/06/15 06:31:30;;;;;;;13.00;6.53;;;15.70;99.90;;;;;;5055512;28;20040;-84
2022/06/15 06:33:56;;;;;;;10.75;4.90;;;15.80;99.90;;;;;;5035992;28;20098;-84
2022/06/15 06:36:30;;;;;;;11.40;6.45;;;15.90;99.90;;;;;;5042712;28;20035;-84
2022/06/15 06:38:56;;;;;;;13.35;5.88;;;16.00;99.90;;;;;;5021669;28;20044;-84
2022/06/15 06:41:24;;;;;;;12.57;5.97;;;16.10;99.90;;;;;;5035424;28;20044;-84
2022/06/15 06:43:50;;;;;;;12.00;5.95;;;16.20;99.90;;;;;;5035486;28;20043;-84
2022/06/15 06:46:16;;;;;;;10.40;5.80;;;16.30;99.90;;;;;;5036173;28;20432;-84
2022/06/15 06:48:42;;;;;;;11.18;5.47;;;16.40;99.90;;;;;;5051384;28;20119;-84
2022/06/15 06:51:07;;;;;;;15.05;5.78;;;16.50;99.90;;;;;;5052055;28;20119;-84
2022/06/15 06:53:35;;;;;;;11.88;5.50;;;16.60;99.90;;;;;;5052146;28;20124;-84
2022/06/15 06:56:03;;;;;;;10.93;5.10;;;16.60;99.90;;;;;;5051837;28;20456;-84
2022/06/15 06:58:29;;;;;;;11.95;5.85;;;16.70;99.90;;;;;;5052685;28;20072;-84
2022/06/15 07:00:54;;;;;;;11.02;5.63;;;16.80;99.90;;;;;;5034706;28;20044;-84
2022/06/15 07:03:20;;;;;;;11.55;5.43;;;16.90;99.90;;;;;;5052143;28;20036;-84
2022/06/15 07:05:45;;;;;;;10.30;5.28;;;16.90;99.90;;;;;;5052196;28;20570;-84
2022/06/15 07:08:12;;;;;;;12.23;5.40;;;17.10;99.90;;;;;;5052162;28;20045;-84
2022/06/15 07:10:42;;;;;;;11.15;4.97;;;17.20;99.90;;;;;;5051414;28;20040;-84
2022/06/15 07:13:09;;;;;;;10.38;4.93;;;17.20;99.90;;;;;;5034959;28;20040;-84
2022/06/15 07:15:34;;;;;;;14.73;5.78;;;17.30;99.90;;;;;;5035668;28;20045;-84
2022/06/15 07:18:01;;;;;;;9.90;5.10;;;17.40;99.90;;;;;;5051602;28;20033;-83
2022/06/15 07:20:28;;;;;;;10.32;4.95;;;17.50;99.90;;;;;;5035777;28;20087;-84
2022/06/15 07:22:54;;;;;;;12.90;5.38;;;17.50;99.90;;;;;;5035215;28;20123;-84
2022/06/15 07:25:20;;;;;;;14.18;5.25;;;17.60;99.90;;;;;;5052449;28;20175;-83
2022/06/15 07:27:46;;;;;;;12.18;4.60;;;17.70;99.90;;;;;;5039250;28;20037;-84
2022/06/15 07:30:17;;;;;;;10.70;4.40;;;17.80;99.90;;;;;;5055040;28;20397;-84
2022/06/15 07:32:44;;;;;;;11.73;4.95;;;17.90;99.90;;;;;;5054292;28;20489;-84
2022/06/15 07:35:19;;;;;;;10.90;4.25;;;17.90;99.90;;;;;;5051347;28;20037;-83
2022/06/15 07:37:45;;;;;;;10.20;4.18;;;18.00;99.90;;;;;;5054004;28;20039;-84
2022/06/15 07:40:11;;;;;;;11.65;4.22;;;18.10;99.90;;;;;;5054806;28;20418;-83
2022/06/15 07:42:38;;;;;;;10.00;4.32;;;18.20;99.90;;;;;;5039048;28;20045;-84
2022/06/15 07:45:04;;;;;;;14.40;4.43;;;18.30;99.90;;;;;;5038278;28;20540;-82
2022/06/15 07:50:15;;;;;;;13.43;3.80;;;18.40;99.90;;;;;;5045993;28;20510;-83
2022/06/15 07:52:43;;;;;;;11.20;4.00;;;18.50;99.90;;;;;;5068814;28;20044;-83
2022/06/15 07:55:12;;;;;;;10.40;3.17;;;18.50;99.90;;;;;;5042725;28;20041;-83
2022/06/15 07:57:37;;;;;;;9.75;3.47;;;18.60;99.90;;;;;;5032293;28;20044;-83
2022/06/15 08:00:09;;;;;;;9.52;3.15;;;18.70;99.90;;;;;;5037300;28;20041;-83
2022/06/15 08:02:35;;;;;;;7.53;2.58;;;18.80;99.90;;;;;;5053905;28;20230;-83
2022/06/15 08:05:00;;;;;;;10.70;2.75;;;18.80;99.90;;;;;;5055023;28;20040;-84
2022/06/15 08:07:26;;;;;;;8.38;2.35;;;18.90;99.90;;;;;;5054163;28;20040;-84
2022/06/15 08:09:52;;;;;;;9.93;2.75;;;18.90;99.90;;;;;;5053328;28;20037;-84
2022/06/15 08:12:19;;;;;;;10.07;2.90;;;19.00;99.90;;;;;;5033645;28;20043;-84
2022/06/15 08:14:49;;;;;;;11.15;2.85;;;19.00;99.90;;;;;;5045298;28;20195;-84
2022/06/15 08:17:38;;;;;;;8.98;3.03;;;19.10;99.90;;;;;;5034647;28;20206;-84
2022/06/15 08:20:14;;;;;;;7.28;2.72;;;19.20;99.90;;;;;;5010756;28;20497;-84
2022/06/15 08:22:43;;;;;;;7.53;2.20;;;19.20;99.90;;;;;;5054455;28;20557;-84
2022/06/15 08:25:12;;;;;;;8.93;2.65;;;19.30;99.90;;;;;;5053404;28;20082;-84
2022/06/15 08:27:38;;;;;;;8.02;2.05;;;19.40;99.90;;;;;;5037235;28;20043;-84
2022/06/15 08:30:08;;;;;;;7.22;1.80;;;19.50;99.90;;;;;;5028772;28;20037;-84
2022/06/15 08:32:33;;;;;;;7.28;2.28;;;19.60;99.90;;;;;;5052422;28;20041;-85
2022/06/15 08:34:59;;;;;;;8.80;2.60;;;19.70;99.20;;;;;;5035904;28;20367;-84
2022/06/15 08:37:25;;;;;;;8.85;2.17;;;19.70;98.00;;;;;;5049329;28;20493;-84
2022/06/15 08:39:51;;;;;;;6.22;1.90;;;19.70;96.80;;;;;;5052634;28;20124;-84
2022/06/15 08:42:16;;;;;;;6.32;2.17;;;19.70;97.10;;;;;;5045088;28;20037;-84
2022/06/15 08:45:18;;;;;;;6.90;1.80;;;19.70;96.50;;;;;;5046694;28;20064;-84
2022/06/15 08:48:16;;;;;;;9.35;2.10;;;19.80;97.40;;;;;;5017251;28;20036;-84
2022/06/15 08:51:04;;;;;;;7.28;1.85;;;19.80;95.90;;;;;;5024505;28;20045;-84
2022/06/15 08:53:37;;;;;;;6.45;1.92;;;19.90;95.30;;;;;;5033681;28;20060;-84
2022/06/15 08:56:10;;;;;;;6.38;1.80;;;20.00;95.00;;;;;;5021997;28;20051;-85
2022/06/15 08:59:03;;;;;;;7.37;1.90;;;20.10;94.20;;;;;;5037083;28;20131;-85
2022/06/15 09:01:57;;;;;;;8.60;2.10;;;20.10;95.90;;;;;;5036337;28;20040;-84
2022/06/15 09:04:49;;;;;;;7.40;2.10;;;20.20;98.00;;;;;;5053682;28;20040;-84
2022/06/15 09:07:52;;;;;;;7.13;1.70;;;20.30;95.20;;;;;;5036378;28;20036;-84
2022/06/15 09:10:36;;;;;;;;;;;20.30;94.10;;;;;;5052776;28;20044;-85
2022/06/15 09:13:38;;;;;;;8.35;2.00;;;20.30;94.10;;;;;;5036650;28;19916;-84
2022/06/15 09:16:28;;;;;;;6.03;1.85;;;20.40;93.00;;;;;;5035224;28;20586;-84
2022/06/15 09:19:07;;;;;;;5.63;1.60;;;20.40;92.70;;;;;;5052747;28;20047;-84
2022/06/15 09:21:38;;;;;;;6.13;1.85;;;20.50;93.40;;;;;;5036194;28;20033;-84
2022/06/15 09:24:12;;;;;;;6.43;1.92;;;20.50;92.10;;;;;;5036047;28;20043;-84
2022/06/15 09:26:53;;;;;;;6.80;1.75;;;20.60;93.90;;;;;;5053098;28;20044;-84
2022/06/15 09:29:21;;;;;;;7.30;1.98;;;20.70;91.70;;;;;;5027838;28;20041;-84
2022/06/15 09:31:57;;;;;;;6.35;1.77;;;20.70;89.40;;;;;;5052167;28;20524;-84
2022/06/15 09:34:33;;;;;;;6.28;2.00;;;20.80;86.90;;;;;;5052554;28;20043;-84
2022/06/15 09:36:59;;;;;;;4.72;1.70;;;20.80;87.30;;;;;;5035958;28;20033;-84
2022/06/15 09:39:29;;;;;;;6.57;1.90;;;20.80;91.30;;;;;;5052545;28;20402;-84
2022/06/15 09:42:20;;;;;;;6.03;1.80;;;20.90;90.80;;;;;;5052417;28;20036;-84
2022/06/15 09:45:01;;;;;;;4.65;1.60;;;21.00;83.50;;;;;;5036442;28;20048;-83
2022/06/15 09:47:51;;;;;;;7.60;1.70;;;21.10;83.70;;;;;;5051864;28;20592;-84
2022/06/15 09:50:29;;;;;;;5.18;1.60;;;21.10;85.80;;;;;;5051334;28;20036;-84
2022/06/15 09:53:21;;;;;;;5.13;1.50;;;21.20;81.40;;;;;;5031361;28;20033;-84
2022/06/15 09:55:53;;;;;;;6.43;1.63;;;21.20;78.30;;;;;;5035932;28;20032;-84
2022/06/15 09:58:23;;;;;;;10.05;2.30;;;21.20;76.20;;;;;;5052449;28;20036;-84
2022/06/15 10:00:49;;;;;;;7.22;2.13;;;21.20;80.40;;;;;;5051939;28;20070;-84
2022/06/15 10:03:31;;;;;;;6.75;1.88;;;21.30;87.00;;;;;;5052811;28;20173;-84
2022/06/15 10:06:04;;;;;;;6.10;1.73;;;21.50;90.60;;;;;;5052843;28;20152;-84
2022/06/15 10:08:30;;;;;;;8.50;1.90;;;21.50;87.00;;;;;;5035113;28;20284;-85
2022/06/15 10:10:59;;;;;;;6.22;1.75;;;21.60;83.90;;;;;;5051339;28;20124;-84
2022/06/15 10:13:31;;;;;;;6.30;1.75;;;21.70;87.60;;;;;;5052366;28;20041;-84
2022/06/15 10:16:24;;;;;;;6.55;1.88;;;21.80;78.70;;;;;;5051117;28;20033;-85
2022/06/15 10:18:53;;;;;;;13.32;1.92;;;21.80;75.90;;;;;;5051153;28;20062;-84
2022/06/15 10:21:28;;;;;;;8.40;1.80;;;21.80;75.00;;;;;;5034708;28;20055;-85
2022/06/15 10:24:14;;;;;;;5.32;1.60;;;21.90;76.90;;;;;;5035030;28;20036;-85
2022/06/15 10:26:48;;;;;;;8.32;2.40;;;21.90;79.70;;;;;;5052775;28;20132;-85
2022/06/15 10:29:23;;;;;;;7.28;2.00;;;22.00;81.30;;;;;;5034983;28;20398;-84
2022/06/15 10:32:08;;;;;;;7.53;2.10;;;22.10;76.40;;;;;;5051790;28;20375;-84
2022/06/15 10:34:41;;;;;;;8.65;1.90;;;22.20;75.40;;;;;;5047927;28;20052;-84
2022/06/15 10:37:23;;;;;;;7.45;2.13;;;22.20;77.00;;;;;;5052431;28;20126;-84
2022/06/15 10:39:51;;;;;;;7.73;2.03;;;22.40;81.40;;;;;;5034665;28;20050;-83
2022/06/15 10:42:35;;;;;;;6.28;1.90;;;22.40;80.60;;;;;;5057246;28;20282;-84
2022/06/15 10:45:06;;;;;;;7.65;2.13;;;22.50;81.30;;;;;;5057326;28;20040;-84
2022/06/15 10:47:50;;;;;;;8.15;1.95;;;22.60;80.30;;;;;;5040020;28;20051;-84
2022/06/15 10:50:26;;;;;;;6.70;1.73;;;22.70;77.10;;;;;;5052006;28;20145;-83
2022/06/15 10:53:26;;;;;;;7.13;2.08;;;22.70;70.00;;;;;;5041033;28;20040;-84
2022/06/15 11:04:36;;;;;;;7.35;1.85;;;23.10;70.50;;;;;;5059301;28;20125;-84
2022/06/15 11:07:07;;;;;;;5.82;1.63;;;23.20;69.20;;;;;;5039601;28;20036;-83
2022/06/15 11:09:43;;;;;;;6.80;1.90;;;23.30;68.60;;;;;;5055045;28;20041;-84
2022/06/15 11:12:30;;;;;;;8.32;1.77;;;23.40;71.40;;;;;;5056167;28;20283;-84
2022/06/15 11:15:02;;;;;;;5.25;1.70;;;23.40;69.50;;;;;;5038467;28;20048;-84
2022/06/15 11:20:22;;;;;;;5.23;1.63;;;23.50;64.90;;;;;;5055184;28;20052;-84
2022/06/15 11:22:51;;;;;;;5.38;1.80;;;23.50;63.20;;;;;;5055553;28;20179;-84
2022/06/15 11:25:20;;;;;;;6.95;1.77;;;23.60;61.40;;;;;;5056012;28;20078;-84
2022/06/15 11:27:51;;;;;;;8.23;1.70;;;23.70;61.30;;;;;;5055291;28;20047;-85
2022/06/15 11:30:20;;;;;;;6.88;1.50;;;23.70;62.70;;;;;;5054979;28;20497;-84
2022/06/15 11:33:05;;;;;;;6.45;1.80;;;23.80;62.60;;;;;;5055057;28;20059;-84
2022/06/15 11:35:49;;;;;;;7.25;1.83;;;23.90;62.60;;;;;;5055074;28;20040;-84
2022/06/15 11:38:40;;;;;;;5.40;1.70;;;24.00;61.10;;;;;;5055323;28;20619;-84
2022/06/15 11:41:16;;;;;;;6.47;1.90;;;24.10;64.40;;;;;;5038001;28;20062;-84
2022/06/15 11:43:44;;;;;;;6.80;1.95;;;24.20;64.70;;;;;;5039363;28;20090;-85
2022/06/15 11:46:27;;;;;;;7.47;1.92;;;24.30;64.30;;;;;;5054576;28;20476;-84
2022/06/15 11:49:11;;;;;;;8.18;2.17;;;24.40;64.00;;;;;;5055171;28;20048;-84
2022/06/15 11:51:44;;;;;;;7.47;1.90;;;24.30;63.20;;;;;;5037546;28;20046;-84
2022/06/15 11:54:22;;;;;;;6.25;1.80;;;24.40;65.00;;;;;;5038495;28;20072;-85
2022/06/15 11:57:23;;;;;;;6.80;1.90;;;24.40;64.80;;;;;;5055180;28;20059;-84
2022/06/15 11:59:58;;;;;;;7.15;1.90;;;24.60;66.60;;;;;;5054267;28;20048;-84
2022/06/15 12:03:01;;;;;;;8.63;2.40;;;24.70;64.30;;;;;;5055568;28;20123;-84
2022/06/15 12:05:33;;;;;;;8.30;2.30;;;24.70;64.30;;;;;;5053681;28;20131;-84
2022/06/15 12:08:26;;;;;;;8.30;2.15;;;24.80;62.80;;;;;;5038104;28;20037;-84
2022/06/15 12:12:37;;;;;;;6.65;1.83;;;24.90;64.50;;;;;;5053816;28;20120;-83
2022/06/15 12:14:21;;;;;;;6.25;1.98;;;25.00;64.10;;;;;;5053904;28;20051;-84
2022/06/15 12:17:19;;;;;;;6.82;1.92;;;25.10;65.20;;;;;;5045920;28;20055;-84
2022/06/15 12:20:05;;;;;;;7.70;1.90;;;25.20;64.20;;;;;;5054101;28;20048;-84
2022/06/15 12:22:47;;;;;;;8.38;2.42;;;25.20;63.20;;;;;;5037926;28;20040;-85
2022/06/15 12:25:37;;;;;;;7.05;1.80;;;25.20;62.00;;;;;;5038290;28;20051;-84
2022/06/15 12:28:32;;;;;;;8.85;2.40;;;25.30;63.70;;;;;;5054021;28;20047;-85
2022/06/15 12:31:05;;;;;;;7.25;1.75;;;25.30;64.20;;;;;;5034464;28;20045;-84
2022/06/15 12:33:54;;;;;;;7.25;2.17;;;25.40;62.80;;;;;;5053829;28;20033;-84
2022/06/15 12:36:47;;;;;;;7.50;2.20;;;25.60;62.70;;;;;;5024742;28;20033;-84
2022/06/15 12:39:30;;;;;;;7.15;2.15;;;25.70;64.30;;;;;;5018435;28;20063;-84
2022/06/15 12:42:12;;;;;;;6.20;1.77;;;25.80;63.70;;;;;;5021328;28;20044;-83
2022/06/15 12:44:51;;;;;;;;;;;25.80;60.60;;;;;;5018267;28;20516;-84
2022/06/15 12:47:18;;;;;;;7.10;2.25;;;25.90;64.40;;;;;;5049723;28;19928;-84
2022/06/15 12:49:47;;;;;;;7.47;1.90;;;25.90;63.40;;;;;;5053800;28;20048;-84
2022/06/15 12:52:19;;;;;;;5.88;2.10;;;26.00;61.80;;;;;;5053234;28;20048;-84
2022/06/15 12:55:06;;;;;;;7.95;2.15;;;26.10;61.80;;;;;;5033745;28;20028;-84
2022/06/15 12:57:50;;;;;;;7.32;2.03;;;26.30;62.50;;;;;;5054165;28;20085;-84
2022/06/15 13:00:45;;;;;;;6.90;1.77;;;26.30;59.80;;;;;;5051433;28;20174;-84
2022/06/15 13:03:19;;;;;;;6.22;1.67;;;26.30;60.60;;;;;;5053117;28;20044;-84
2022/06/15 13:05:45;;;;;;;6.55;1.80;;;26.40;61.40;;;;;;5053357;28;20040;-84
2022/06/15 13:08:17;;;;;;;6.93;2.17;;;26.50;62.10;;;;;;5036729;28;20512;-84
2022/06/15 13:10:54;;;;;;;8.23;2.10;;;26.50;61.10;;;;;;5035903;28;20532;-85
2022/06/15 13:13:35;;;;;;;5.38;1.77;;;26.50;58.00;;;;;;5052747;28;20044;-84
2022/06/15 13:16:11;;;;;;;8.13;1.80;;;26.50;57.00;;;;;;5052635;28;20128;-84
2022/06/15 13:18:40;;;;;;;7.30;2.10;;;26.40;56.20;;;;;;5035809;28;20517;-84
2022/06/15 13:21:06;;;;;;;8.48;2.08;;;26.40;57.90;;;;;;5036336;28;20119;-84
2022/06/15 13:23:45;;;;;;;6.15;1.98;;;26.50;58.90;;;;;;5052796;28;20074;-84
2022/06/15 13:26:15;;;;;;;7.88;2.10;;;26.60;58.30;;;;;;5053613;28;20040;-84